Time;durP1;ratioP1;P1;durP2;ratioP2;P2;SDS_P1;SDS_P2;PMS_P1;PMS_P2;Temp;Humidity;BMP_temperature;BMP_pressure;BME280_temperature;BME280_humidity;BME280_pressure;Samples;Min_cycle;Max_cycle;Signal;HPM_P1;HPM_P2
2022/11/09 00:01:28;;;;;;;22.33;20.63;;;8.70;99.90;;;;;;4992418;28;20189;-81
2022/11/09 00:03:59;;;;;;;29.57;27.80;;;8.70;99.90;;;;;;4985888;28;20751;-81
2022/11/09 00:06:26;;;;;;;40.13;37.80;;;8.80;99.90;;;;;;5001799;28;20187;-80
2022/11/09 00:08:52;;;;;;;35.50;33.20;;;8.90;99.90;;;;;;5013817;28;20204;-80
2022/11/09 00:11:18;;;;;;;35.07;32.67;;;8.80;99.90;;;;;;5014337;28;20180;-78
2022/11/09 00:13:45;;;;;;;22.00;20.40;;;8.90;99.90;;;;;;5000539;28;20253;-81
2022/11/09 00:16:14;;;;;;;10.67;8.73;;;8.80;99.90;;;;;;4997244;28;20189;-81
2022/11/09 00:18:44;;;;;;;13.83;12.63;;;8.90;99.90;;;;;;4996324;28;20201;-81
2022/11/09 00:21:22;;;;;;;16.00;14.43;;;8.90;99.90;;;;;;4996220;28;20568;-80
2022/11/09 00:23:48;;;;;;;14.90;13.70;;;8.90;99.90;;;;;;4996543;28;20665;-81
2022/11/09 00:26:16;;;;;;;13.87;12.67;;;8.90;99.90;;;;;;4997835;28;20189;-81
2022/11/09 00:28:42;;;;;;;11.80;10.97;;;9.00;99.90;;;;;;4995359;28;20207;-80
2022/11/09 00:31:16;;;;;;;11.17;10.10;;;9.00;99.90;;;;;;4997227;28;20184;-81
2022/11/09 00:33:42;;;;;;;11.20;10.27;;;9.10;99.90;;;;;;4990639;28;20223;-81
2022/11/09 00:36:11;;;;;;;8.87;8.27;;;9.10;99.90;;;;;;4994430;28;20594;-81
2022/11/09 00:38:39;;;;;;;12.67;10.53;;;9.20;99.90;;;;;;4994214;28;20249;-80
2022/11/09 00:41:06;;;;;;;18.37;17.03;;;9.20;99.90;;;;;;4997429;28;20553;-81
2022/11/09 00:43:32;;;;;;;23.43;21.83;;;9.20;99.90;;;;;;4997148;28;20610;-81
2022/11/09 00:45:58;;;;;;;20.17;18.87;;;9.20;99.90;;;;;;4989375;28;20231;-81
2022/11/09 00:48:25;;;;;;;17.90;16.60;;;9.30;99.90;;;;;;4975494;28;20205;-80
2022/11/09 00:50:52;;;;;;;14.43;13.07;;;9.20;99.90;;;;;;4975453;28;20390;-81
2022/11/09 00:53:19;;;;;;;11.07;10.27;;;9.20;99.90;;;;;;4975575;28;20212;-81
2022/11/09 00:55:58;;;;;;;11.60;10.50;;;9.20;99.90;;;;;;4976064;28;20172;-81
2022/11/09 00:58:26;;;;;;;12.10;11.10;;;9.20;99.90;;;;;;4975093;28;20216;-81
2022/11/09 01:00:53;;;;;;;20.80;14.13;;;9.10;99.90;;;;;;4989475;28;20188;-80
2022/11/09 01:03:19;;;;;;;16.20;14.80;;;9.10;99.90;;;;;;4993929;28;20184;-81
2022/11/09 01:05:45;;;;;;;25.07;18.20;;;9.10;99.90;;;;;;5009515;28;20172;-81
2022/11/09 01:08:11;;;;;;;21.30;19.60;;;9.10;99.90;;;;;;5005751;28;20211;-81
2022/11/09 01:10:45;;;;;;;25.00;22.80;;;9.00;99.90;;;;;;4998348;28;20272;-81
2022/11/09 01:13:13;;;;;;;27.67;25.50;;;9.10;99.90;;;;;;4996570;28;20240;-81
2022/11/09 01:15:47;;;;;;;29.73;27.53;;;9.00;99.90;;;;;;4995707;28;20202;-80
2022/11/09 01:18:14;;;;;;;26.97;25.00;;;9.00;99.90;;;;;;4995791;28;20230;-80
2022/11/09 01:20:42;;;;;;;27.53;25.43;;;9.00;99.90;;;;;;4993994;28;20244;-81
2022/11/09 01:23:09;;;;;;;28.73;26.37;;;9.00;99.90;;;;;;4994289;28;20232;-81
2022/11/09 01:25:35;;;;;;;30.47;28.33;;;9.00;99.90;;;;;;4994339;28;20188;-81
2022/11/09 01:28:02;;;;;;;31.87;29.60;;;9.00;99.90;;;;;;4989337;28;20212;-81
2022/11/09 01:30:28;;;;;;;26.43;24.63;;;9.00;99.90;;;;;;4982213;28;20242;-81
2022/11/09 01:32:54;;;;;;;18.23;16.83;;;9.00;99.90;;;;;;4994859;28;20231;-81
2022/11/09 01:35:20;;;;;;;14.27;13.10;;;9.00;99.90;;;;;;4998050;28;20186;-81
2022/11/09 01:37:45;;;;;;;11.67;10.70;;;9.10;99.90;;;;;;4997096;28;20200;-80
2022/11/09 01:40:12;;;;;;;10.87;9.87;;;9.10;99.90;;;;;;4998237;28;20184;-81
2022/11/09 01:42:38;;;;;;;10.90;9.80;;;9.00;99.90;;;;;;4988133;28;20185;-80
2022/11/09 01:45:23;;;;;;;10.70;8.70;;;9.10;99.90;;;;;;4977308;28;20177;-80
2022/11/09 01:47:56;;;;;;;8.97;8.13;;;9.00;99.90;;;;;;4977190;28;20220;-80
2022/11/09 01:50:30;;;;;;;10.47;9.47;;;9.00;99.90;;;;;;4983193;28;20180;-79
2022/11/09 01:52:56;;;;;;;9.07;8.17;;;9.00;99.90;;;;;;4992083;28;20224;-81
2022/11/09 01:55:23;;;;;;;9.20;8.50;;;9.00;99.90;;;;;;4976288;28;20185;-81
2022/11/09 01:58:02;;;;;;;9.97;9.07;;;8.90;99.90;;;;;;4994036;28;20228;-81
2022/11/09 02:00:28;;;;;;;9.50;8.70;;;9.00;99.90;;;;;;4976427;28;20188;-81
2022/11/09 02:02:59;;;;;;;10.17;9.37;;;9.00;99.90;;;;;;4975794;28;20279;-81
2022/11/09 02:05:29;;;;;;;10.60;9.67;;;9.00;99.90;;;;;;4975913;28;20274;-81
2022/11/09 02:07:56;;;;;;;10.70;9.73;;;9.00;99.90;;;;;;4974614;28;20201;-81
2022/11/09 02:10:30;;;;;;;9.97;9.30;;;9.00;99.90;;;;;;4975423;28;20191;-81
2022/11/09 02:12:58;;;;;;;10.93;9.87;;;9.00;99.90;;;;;;4975271;28;20205;-80
2022/11/09 02:15:25;;;;;;;10.30;9.50;;;9.00;99.90;;;;;;4975637;28;20188;-83
2022/11/09 02:17:53;;;;;;;10.00;9.07;;;9.00;99.90;;;;;;4993991;28;20196;-78
2022/11/09 02:20:20;;;;;;;10.33;9.53;;;9.00;99.90;;;;;;4990210;28;20177;-77
2022/11/09 02:22:46;;;;;;;10.60;9.90;;;9.00;99.90;;;;;;4988196;28;20276;-77
2022/11/09 02:25:14;;;;;;;10.07;9.20;;;9.10;99.90;;;;;;4987202;28;20342;-77
2022/11/09 02:27:42;;;;;;;13.13;9.90;;;9.10;99.90;;;;;;4986550;28;20211;-77
2022/11/09 02:30:08;;;;;;;10.97;10.27;;;9.10;99.90;;;;;;4988744;28;20267;-76
2022/11/09 02:32:34;;;;;;;11.23;10.10;;;9.20;99.90;;;;;;4986647;28;20208;-77
2022/11/09 02:35:00;;;;;;;10.23;9.53;;;9.20;99.90;;;;;;4987896;28;20173;-78
2022/11/09 02:37:36;;;;;;;9.77;9.07;;;9.20;99.90;;;;;;4989611;28;20204;-77
2022/11/09 02:40:07;;;;;;;10.87;9.67;;;9.20;99.90;;;;;;4990647;28;20245;-78
2022/11/09 02:42:33;;;;;;;10.03;9.23;;;9.30;99.90;;;;;;4972769;28;20181;-78
2022/11/09 02:44:59;;;;;;;11.13;10.17;;;9.30;99.90;;;;;;4971612;28;20557;-78
2022/11/09 02:47:25;;;;;;;13.00;12.00;;;9.30;99.90;;;;;;4969905;28;20205;-77
2022/11/09 02:49:51;;;;;;;14.73;13.73;;;9.30;99.90;;;;;;4971690;28;20592;-77
2022/11/09 02:52:18;;;;;;;15.20;14.20;;;9.40;99.90;;;;;;4986908;28;20188;-78
2022/11/09 02:54:44;;;;;;;16.27;15.33;;;9.40;99.90;;;;;;4990863;28;20275;-77
2022/11/09 02:57:10;;;;;;;19.77;18.47;;;9.40;99.90;;;;;;4989239;28;20212;-77
2022/11/09 02:59:36;;;;;;;21.73;20.37;;;9.50;99.90;;;;;;4990760;28;20561;-77
2022/11/09 03:02:02;;;;;;;19.30;18.20;;;9.50;99.90;;;;;;4990802;28;20192;-77
2022/11/09 03:04:28;;;;;;;18.57;17.17;;;9.50;99.90;;;;;;4989501;28;20279;-77
2022/11/09 03:06:54;;;;;;;16.70;15.70;;;9.50;99.90;;;;;;4975908;28;20267;-77
2022/11/09 03:09:19;;;;;;;15.73;14.73;;;9.60;99.90;;;;;;4989522;28;20637;-77
2022/11/09 03:11:45;;;;;;;14.03;13.13;;;9.60;99.90;;;;;;4989334;28;20196;-76
2022/11/09 03:14:11;;;;;;;10.50;9.50;;;9.60;99.90;;;;;;4989364;28;20216;-78
2022/11/09 03:16:38;;;;;;;9.10;8.40;;;9.70;99.90;;;;;;4990518;28;20185;-78
2022/11/09 03:19:05;;;;;;;11.57;10.57;;;9.70;99.90;;;;;;4984254;28;20246;-78
2022/11/09 03:21:30;;;;;;;8.90;8.07;;;9.70;99.90;;;;;;4969909;28;20559;-78
2022/11/09 03:23:56;;;;;;;11.73;9.30;;;9.70;99.90;;;;;;4970026;28;20185;-77
2022/11/09 03:26:22;;;;;;;9.43;8.50;;;9.70;99.90;;;;;;4969870;28;20185;-77
2022/11/09 03:28:48;;;;;;;10.10;9.20;;;9.70;99.90;;;;;;4969388;28;20248;-76
2022/11/09 03:31:14;;;;;;;10.90;10.00;;;9.70;99.90;;;;;;4971000;28;20260;-77
2022/11/09 03:33:41;;;;;;;10.13;9.23;;;9.70;99.90;;;;;;4970700;28;20220;-77
2022/11/09 03:36:07;;;;;;;10.80;9.77;;;9.80;99.90;;;;;;4970660;28;20566;-76
2022/11/09 03:38:34;;;;;;;14.00;11.13;;;9.80;99.90;;;;;;4969173;28;20209;-77
2022/11/09 03:41:02;;;;;;;10.00;8.90;;;9.80;99.90;;;;;;4970774;28;20189;-78
2022/11/09 03:43:28;;;;;;;11.43;10.33;;;9.80;99.90;;;;;;4976056;28;20189;-77
2022/11/09 03:45:55;;;;;;;10.57;9.67;;;9.80;99.90;;;;;;4989828;28;20187;-77
2022/11/09 03:48:20;;;;;;;13.73;12.63;;;9.80;99.90;;;;;;4987633;28;20212;-77
2022/11/09 03:50:46;;;;;;;18.83;17.37;;;9.80;99.90;;;;;;4989414;28;20196;-78
2022/11/09 03:53:12;;;;;;;19.33;17.93;;;9.80;99.90;;;;;;4985831;28;20276;-77
2022/11/09 03:55:39;;;;;;;22.20;20.63;;;9.80;99.90;;;;;;4970840;28;20223;-78
2022/11/09 03:58:06;;;;;;;27.17;25.43;;;9.80;99.90;;;;;;4968665;28;20672;-77
2022/11/09 04:00:33;;;;;;;37.67;34.90;;;9.80;99.90;;;;;;4969254;28;20658;-76
2022/11/09 04:02:59;;;;;;;40.00;37.53;;;9.80;99.90;;;;;;4981793;28;20188;-77
2022/11/09 04:05:25;;;;;;;49.47;46.47;;;9.80;99.90;;;;;;4970410;28;20212;-76
2022/11/09 04:07:53;;;;;;;34.70;32.57;;;9.70;99.90;;;;;;4976321;28;20741;-77
2022/11/09 04:10:20;;;;;;;22.43;20.70;;;9.70;99.90;;;;;;4988304;28;20240;-76
2022/11/09 04:12:46;;;;;;;19.30;17.53;;;9.70;99.90;;;;;;4987874;28;20181;-76
2022/11/09 04:15:13;;;;;;;14.00;12.97;;;9.60;99.90;;;;;;4977088;28;20549;-77
2022/11/09 04:17:39;;;;;;;13.63;12.47;;;9.60;99.90;;;;;;4987858;28;20196;-76
2022/11/09 04:20:06;;;;;;;17.20;15.70;;;9.50;99.90;;;;;;4989661;28;20322;-76
2022/11/09 04:22:33;;;;;;;25.70;23.73;;;9.50;99.90;;;;;;4989448;28;20794;-76
2022/11/09 04:24:59;;;;;;;38.70;35.97;;;9.50;99.90;;;;;;4987951;28;20656;-76
2022/11/09 04:27:25;;;;;;;38.17;35.70;;;9.60;99.90;;;;;;4975739;28;20207;-76
2022/11/09 04:29:51;;;;;;;50.50;47.40;;;9.50;99.90;;;;;;4975563;28;20703;-76
2022/11/09 04:32:16;;;;;;;37.43;34.87;;;9.50;99.90;;;;;;4983615;28;20182;-76
2022/11/09 04:34:42;;;;;;;23.67;22.07;;;9.50;99.90;;;;;;4973089;28;20215;-76
2022/11/09 04:37:09;;;;;;;23.23;21.27;;;9.50;99.90;;;;;;4987456;28;20192;-75
2022/11/09 04:39:35;;;;;;;25.87;24.03;;;9.60;99.90;;;;;;4989446;28;20181;-76
2022/11/09 04:42:01;;;;;;;40.37;37.87;;;9.50;99.90;;;;;;4987906;28;20177;-76
2022/11/09 04:44:28;;;;;;;29.23;27.37;;;9.50;99.90;;;;;;4988211;28;20206;-77
2022/11/09 04:46:54;;;;;;;20.40;18.50;;;9.50;99.90;;;;;;4987785;28;20187;-75
2022/11/09 04:49:20;;;;;;;13.80;12.67;;;9.50;99.90;;;;;;4988142;28;20603;-69
2022/11/09 04:51:46;;;;;;;23.77;21.67;;;9.50;99.90;;;;;;4988064;28;20181;-69
2022/11/09 04:54:12;;;;;;;21.87;19.40;;;9.50;99.90;;;;;;4987982;28;20216;-69
2022/11/09 04:56:37;;;;;;;34.83;31.77;;;9.50;99.90;;;;;;4982147;28;20177;-70
2022/11/09 04:59:03;;;;;;;31.20;28.40;;;9.50;99.90;;;;;;4969347;28;20225;-68
2022/11/09 05:01:29;;;;;;;25.80;23.50;;;9.50;99.90;;;;;;4987733;28;20176;-69
2022/11/09 05:03:55;;;;;;;35.83;33.40;;;9.50;99.90;;;;;;4988787;28;20233;-69
2022/11/09 05:06:32;;;;;;;34.10;31.13;;;9.50;99.90;;;;;;4987703;28;20206;-69
2022/11/09 05:09:05;;;;;;;21.63;19.93;;;9.50;99.90;;;;;;4987223;28;20208;-69
2022/11/09 05:11:31;;;;;;;21.33;19.80;;;9.50;99.90;;;;;;4988583;28;20189;-69
2022/11/09 05:13:57;;;;;;;96.37;90.63;;;9.50;99.90;;;;;;4987762;28;20208;-70
2022/11/09 05:16:23;;;;;;;52.93;49.73;;;9.50;99.90;;;;;;4987400;28;20176;-69
2022/11/09 05:18:50;;;;;;;99.77;94.10;;;9.50;99.90;;;;;;4987968;28;20286;-69
2022/11/09 05:21:15;;;;;;;111.67;105.17;;;9.40;99.90;;;;;;4988446;28;20229;-69
2022/11/09 05:24:00;;;;;;;38.93;36.43;;;9.40;99.90;;;;;;4987490;28;20237;-69
2022/11/09 05:26:28;;;;;;;18.03;16.37;;;9.30;99.90;;;;;;4988246;28;20187;-68
2022/11/09 05:28:54;;;;;;;15.93;14.50;;;9.30;99.90;;;;;;4988591;28;20198;-70
2022/11/09 05:31:20;;;;;;;23.43;21.50;;;9.20;99.90;;;;;;4987912;28;20690;-69
2022/11/09 05:33:49;;;;;;;15.53;14.30;;;9.20;99.90;;;;;;5008620;22;20225;-77
2022/11/09 05:36:14;;;;;;;17.23;15.67;;;9.20;99.90;;;;;;4988474;28;20613;-78
2022/11/09 05:38:40;;;;;;;12.83;11.83;;;9.30;99.90;;;;;;4986682;28;20272;-77
2022/11/09 05:41:06;;;;;;;13.03;11.93;;;9.30;99.90;;;;;;4995791;28;20180;-76
2022/11/09 05:43:32;;;;;;;12.10;10.97;;;9.40;99.90;;;;;;5004702;28;20686;-76
2022/11/09 05:45:59;;;;;;;13.00;11.63;;;9.40;99.90;;;;;;4998504;28;20184;-76
2022/11/09 05:48:25;;;;;;;11.87;10.10;;;9.40;99.90;;;;;;4992828;28;20560;-76
2022/11/09 05:50:51;;;;;;;11.60;10.07;;;9.50;99.90;;;;;;4986812;28;20199;-76
2022/11/09 05:53:16;;;;;;;15.20;10.20;;;9.50;99.90;;;;;;4986868;28;20228;-76
2022/11/09 05:55:42;;;;;;;11.67;9.27;;;9.50;99.90;;;;;;4987840;28;20191;-76
2022/11/09 05:58:08;;;;;;;12.27;9.57;;;9.60;99.90;;;;;;4986701;28;20183;-76
2022/11/09 06:00:34;;;;;;;13.17;11.80;;;9.50;99.90;;;;;;4988223;28;20184;-76
2022/11/09 06:03:09;;;;;;;16.47;13.00;;;9.50;99.90;;;;;;4984041;28;20204;-74
2022/11/09 06:05:36;;;;;;;17.20;13.13;;;9.50;99.90;;;;;;4988034;28;20187;-73
2022/11/09 06:08:08;;;;;;;16.90;15.33;;;9.50;99.90;;;;;;4987470;28;20188;-73
2022/11/09 06:10:34;;;;;;;19.83;18.13;;;9.50;99.90;;;;;;4988623;28;20321;-74
2022/11/09 06:13:00;;;;;;;19.27;17.57;;;9.50;99.90;;;;;;4990068;28;20184;-75
2022/11/09 06:15:26;;;;;;;22.00;19.90;;;9.50;99.90;;;;;;4991575;28;20219;-75
2022/11/09 06:17:56;;;;;;;22.70;20.83;;;9.50;99.90;;;;;;4991395;28;20584;-75
2022/11/09 06:20:22;;;;;;;24.47;22.57;;;9.50;99.90;;;;;;4988879;28;20216;-75
2022/11/09 06:22:55;;;;;;;27.13;24.83;;;9.60;99.90;;;;;;4991362;28;20693;-74
2022/11/09 06:25:21;;;;;;;22.30;20.17;;;9.60;99.90;;;;;;4989672;28;20188;-75
2022/11/09 06:27:47;;;;;;;21.23;19.50;;;9.60;99.90;;;;;;4990215;28;20199;-75
2022/11/09 06:30:13;;;;;;;19.70;17.90;;;9.60;99.90;;;;;;4990837;28;20208;-75
2022/11/09 06:32:39;;;;;;;25.73;23.33;;;9.60;99.90;;;;;;4991061;28;20208;-75
2022/11/09 06:35:05;;;;;;;26.07;23.77;;;9.60;99.90;;;;;;4990686;28;20273;-75
2022/11/09 06:37:31;;;;;;;24.77;22.83;;;9.60;99.90;;;;;;4990545;28;20515;-75
2022/11/09 06:39:57;;;;;;;21.50;19.70;;;9.60;99.90;;;;;;4990826;28;20590;-75
2022/11/09 06:42:23;;;;;;;23.20;21.03;;;9.60;99.90;;;;;;4991307;28;20200;-75
2022/11/09 06:44:49;;;;;;;19.80;17.83;;;9.60;99.90;;;;;;4992241;28;20208;-75
2022/11/09 06:47:15;;;;;;;20.40;18.00;;;9.60;99.90;;;;;;4998290;28;20641;-75
2022/11/09 06:49:40;;;;;;;18.47;16.53;;;9.60;99.90;;;;;;4993002;28;20192;-74
2022/11/09 06:52:06;;;;;;;15.90;14.37;;;9.60;99.90;;;;;;4990645;28;20185;-75
2022/11/09 06:54:33;;;;;;;15.57;13.97;;;9.60;99.90;;;;;;4991005;28;20224;-75
2022/11/09 06:56:59;;;;;;;13.90;12.20;;;9.70;99.90;;;;;;4989642;28;20176;-75
2022/11/09 06:59:25;;;;;;;13.90;12.50;;;9.70;99.90;;;;;;4991013;28;20295;-75
2022/11/09 07:01:51;;;;;;;17.73;12.87;;;9.80;99.90;;;;;;4989956;28;20234;-75
2022/11/09 07:04:17;;;;;;;13.10;11.80;;;9.80;99.90;;;;;;4991002;28;20208;-75
2022/11/09 07:06:43;;;;;;;15.07;13.83;;;9.90;99.90;;;;;;4991280;28;20574;-75
2022/11/09 07:09:10;;;;;;;17.57;16.07;;;9.90;99.90;;;;;;4990661;28;20199;-75
2022/11/09 07:11:36;;;;;;;23.23;20.90;;;9.80;99.90;;;;;;4989765;28;20188;-75
2022/11/09 07:14:02;;;;;;;26.47;24.13;;;9.80;99.90;;;;;;4990665;28;20219;-75
2022/11/09 07:16:29;;;;;;;19.63;17.20;;;9.90;99.90;;;;;;4991000;28;20177;-75
2022/11/09 07:18:55;;;;;;;15.70;14.17;;;9.90;99.90;;;;;;4990675;28;20269;-75
2022/11/09 07:21:21;;;;;;;14.03;12.83;;;9.80;99.90;;;;;;4990389;28;20666;-75
2022/11/09 07:23:48;;;;;;;16.90;13.27;;;9.90;99.90;;;;;;4989856;28;20239;-74
2022/11/09 07:26:14;;;;;;;13.77;12.33;;;9.90;99.90;;;;;;4990715;28;20194;-75
2022/11/09 07:28:40;;;;;;;14.97;12.20;;;9.90;99.90;;;;;;4990323;28;20188;-74
2022/11/09 07:31:07;;;;;;;16.10;12.27;;;9.90;99.90;;;;;;4989499;28;20645;-75
2022/11/09 07:33:33;;;;;;;17.10;15.27;;;10.00;99.90;;;;;;4990353;28;20224;-75
2022/11/09 07:36:00;;;;;;;17.53;15.63;;;10.00;99.90;;;;;;4989315;28;20263;-74
2022/11/09 07:38:27;;;;;;;18.37;16.77;;;10.00;99.90;;;;;;4990214;28;20176;-75
2022/11/09 07:40:56;;;;;;;18.93;17.23;;;10.00;99.90;;;;;;4990587;28;20208;-75
2022/11/09 07:43:22;;;;;;;19.57;17.93;;;10.00;99.90;;;;;;4990503;28;20291;-75
2022/11/09 07:45:48;;;;;;;16.97;15.60;;;10.10;99.90;;;;;;4990382;28;20267;-74
2022/11/09 07:48:14;;;;;;;22.10;20.33;;;10.10;99.90;;;;;;4989977;28;20657;-74
2022/11/09 07:50:40;;;;;;;15.30;14.07;;;10.10;99.90;;;;;;4990136;28;20645;-74
2022/11/09 07:53:07;;;;;;;12.53;11.23;;;10.10;99.90;;;;;;4990152;28;20247;-73
2022/11/09 07:55:34;;;;;;;34.67;32.57;;;10.20;99.90;;;;;;4990166;28;20220;-73
2022/11/09 07:58:07;;;;;;;82.90;78.37;;;10.40;99.90;;;;;;4989730;28;20185;-73
2022/11/09 08:00:35;;;;;;;66.37;62.80;;;10.60;99.90;;;;;;4990243;28;20224;-73
2022/11/09 08:03:01;;;;;;;96.20;90.43;;;10.70;99.90;;;;;;4990037;28;20303;-74
2022/11/09 08:05:27;;;;;;;71.20;66.83;;;10.80;99.90;;;;;;4989973;28;20704;-74
2022/11/09 08:07:57;;;;;;;22.87;21.13;;;10.80;99.90;;;;;;4989817;28;20191;-74
2022/11/09 08:10:25;;;;;;;26.83;24.83;;;10.80;99.90;;;;;;4989109;28;20591;-74
2022/11/09 08:12:55;;;;;;;34.43;31.87;;;10.70;99.90;;;;;;4989802;28;20180;-73
2022/11/09 08:15:21;;;;;;;20.17;18.50;;;10.70;99.90;;;;;;4989979;28;20710;-73
2022/11/09 08:17:47;;;;;;;17.23;15.57;;;10.70;99.90;;;;;;4989520;28;20180;-73
2022/11/09 08:20:14;;;;;;;16.97;15.43;;;10.80;99.90;;;;;;4989969;28;20177;-74
2022/11/09 08:22:45;;;;;;;14.20;12.90;;;10.90;99.90;;;;;;4988652;28;20180;-74
2022/11/09 08:25:11;;;;;;;14.67;13.27;;;10.90;99.90;;;;;;4988577;28;20208;-74
2022/11/09 08:27:39;;;;;;;12.97;11.63;;;10.90;99.90;;;;;;4989387;28;20214;-74
2022/11/09 08:30:14;;;;;;;16.10;13.17;;;11.00;99.90;;;;;;4997784;28;20275;-76
2022/11/09 08:32:41;;;;;;;14.20;10.97;;;11.00;99.90;;;;;;4993296;28;20628;-74
2022/11/09 08:35:09;;;;;;;11.93;10.67;;;11.10;99.90;;;;;;4989239;28;20226;-74
2022/11/09 08:37:36;;;;;;;11.77;10.77;;;11.10;99.90;;;;;;4989329;28;20596;-74
2022/11/09 08:40:02;;;;;;;14.20;12.97;;;11.20;99.90;;;;;;4989701;28;20177;-74
2022/11/09 08:42:28;;;;;;;28.53;26.67;;;11.30;99.90;;;;;;4988523;28;20181;-74
2022/11/09 08:44:53;;;;;;;15.57;14.03;;;11.40;99.90;;;;;;4989791;28;20295;-74
2022/11/09 08:47:19;;;;;;;14.33;13.07;;;11.50;99.90;;;;;;4989164;28;20193;-74
2022/11/09 08:49:46;;;;;;;12.27;11.03;;;11.60;99.90;;;;;;4989454;28;20230;-74
2022/11/09 08:52:12;;;;;;;17.00;15.60;;;11.70;99.90;;;;;;4989550;28;20180;-74
2022/11/09 08:54:38;;;;;;;15.77;14.50;;;11.80;99.90;;;;;;4989207;28;20216;-74
2022/11/09 08:57:04;;;;;;;14.97;13.67;;;11.80;99.90;;;;;;4987756;28;20684;-74
2022/11/09 08:59:30;;;;;;;14.57;13.37;;;11.80;99.90;;;;;;4988189;28;20180;-74
2022/11/09 09:01:56;;;;;;;20.33;18.93;;;11.70;99.90;;;;;;4989222;28;20180;-74
2022/11/09 09:04:22;;;;;;;15.80;14.43;;;11.70;99.90;;;;;;4987892;28;20614;-74
2022/11/09 09:06:48;;;;;;;17.27;15.87;;;11.70;99.90;;;;;;4987682;28;20660;-74
2022/11/09 09:09:14;;;;;;;19.60;17.80;;;11.70;99.90;;;;;;4989250;28;20191;-74
2022/11/09 09:11:40;;;;;;;16.60;15.03;;;11.80;99.90;;;;;;4988107;28;20679;-74
2022/11/09 09:14:05;;;;;;;23.67;21.67;;;11.90;99.90;;;;;;4989212;28;20211;-74
2022/11/09 09:16:31;;;;;;;21.77;20.00;;;12.00;99.90;;;;;;4988192;28;20271;-74
2022/11/09 09:18:57;;;;;;;24.27;21.93;;;12.00;99.90;;;;;;4987637;28;20195;-74
2022/11/09 09:21:22;;;;;;;18.17;16.77;;;11.90;99.90;;;;;;4989250;28;20187;-74
2022/11/09 09:23:49;;;;;;;17.90;16.37;;;11.90;99.90;;;;;;4988920;28;20730;-74
2022/11/09 09:26:16;;;;;;;20.03;18.40;;;12.00;99.90;;;;;;4987681;28;20651;-74
2022/11/09 09:28:42;;;;;;;27.60;25.60;;;12.10;99.90;;;;;;4988676;28;20230;-74
2022/11/09 09:31:08;;;;;;;19.47;18.10;;;12.20;99.90;;;;;;4988871;28;20215;-75
2022/11/09 09:33:34;;;;;;;16.70;15.63;;;12.20;99.90;;;;;;4987404;28;20308;-74
2022/11/09 09:36:00;;;;;;;15.80;14.37;;;12.30;99.90;;;;;;4988452;28;20526;-75
2022/11/09 09:38:27;;;;;;;15.43;14.43;;;12.30;99.90;;;;;;4987209;28;20176;-75
2022/11/09 09:41:01;;;;;;;25.97;24.20;;;12.40;99.90;;;;;;4988655;28;20195;-75
2022/11/09 09:43:33;;;;;;;30.23;28.40;;;12.40;99.90;;;;;;4988730;28;20211;-75
2022/11/09 09:46:03;;;;;;;18.87;17.73;;;12.40;99.90;;;;;;4990254;28;20232;-75
2022/11/09 09:48:46;;;;;;;37.10;35.03;;;12.50;99.90;;;;;;4991743;28;20183;-75
2022/11/09 09:51:28;;;;;;;37.13;35.10;;;12.50;99.90;;;;;;4992125;28;20479;-75
2022/11/09 09:54:01;;;;;;;28.17;26.43;;;12.60;99.90;;;;;;4992261;28;20223;-75
2022/11/09 09:56:32;;;;;;;46.20;43.70;;;12.70;99.90;;;;;;4992504;28;20184;-75
2022/11/09 09:59:09;;;;;;;54.40;51.60;;;12.80;99.90;;;;;;4990370;28;20188;-74
2022/11/09 10:01:42;;;;;;;81.47;77.23;;;12.80;99.90;;;;;;4990980;28;20175;-75
2022/11/09 10:04:18;;;;;;;96.43;91.43;;;12.90;99.90;;;;;;4991869;28;20700;-76
2022/11/09 10:07:02;;;;;;;58.20;55.17;;;13.10;99.90;;;;;;4992212;28;20252;-75
2022/11/09 10:09:48;;;;;;;164.43;155.80;;;13.30;99.90;;;;;;4991877;28;20192;-74
2022/11/09 10:12:23;;;;;;;73.17;69.40;;;13.40;99.90;;;;;;4991808;28;20233;-75
2022/11/09 10:14:52;;;;;;;12.90;12.10;;;13.40;99.90;;;;;;5000325;28;20596;-75
2022/11/09 10:17:24;;;;;;;9.47;8.97;;;13.50;99.90;;;;;;4992173;28;20177;-75
2022/11/09 10:20:19;;;;;;;8.63;8.07;;;13.60;99.90;;;;;;4992022;28;20305;-74
2022/11/09 10:23:14;;;;;;;39.53;37.53;;;13.90;99.90;;;;;;4992080;28;20180;-76
2022/11/09 10:25:44;;;;;;;8.60;8.10;;;14.30;99.90;;;;;;4998358;28;20260;-76
2022/11/09 10:28:14;;;;;;;9.77;9.20;;;14.60;99.90;;;;;;4991013;28;20184;-75
2022/11/09 10:30:40;;;;;;;13.40;12.60;;;14.90;99.90;;;;;;4991704;28;20220;-75
2022/11/09 10:33:08;;;;;;;55.27;52.40;;;15.00;99.90;;;;;;4991333;28;20188;-75
2022/11/09 10:35:39;;;;;;;54.17;51.07;;;15.10;99.90;;;;;;4991357;28;20185;-75
2022/11/09 10:38:11;;;;;;;29.77;28.00;;;15.10;99.90;;;;;;4991000;28;20187;-75
2022/11/09 10:40:48;;;;;;;19.00;18.00;;;15.20;99.90;;;;;;4991366;28;20187;-75
2022/11/09 10:43:14;;;;;;;11.33;10.73;;;15.30;99.90;;;;;;4991155;28;20208;-76
2022/11/09 10:45:42;;;;;;;9.97;9.20;;;15.60;99.90;;;;;;4991306;28;20176;-76
2022/11/09 10:48:12;;;;;;;17.70;16.80;;;15.80;99.90;;;;;;4989467;28;20660;-76
2022/11/09 10:50:51;;;;;;;14.03;13.13;;;16.20;99.90;;;;;;4991400;28;20184;-75
2022/11/09 10:53:25;;;;;;;26.80;24.93;;;16.60;99.90;;;;;;4990062;28;20579;-75
2022/11/09 10:55:55;;;;;;;30.93;29.07;;;16.80;99.90;;;;;;4991187;28;20214;-75
2022/11/09 10:58:37;;;;;;;17.77;16.77;;;16.80;99.90;;;;;;4989613;28;20226;-75
2022/11/09 11:01:17;;;;;;;14.60;13.63;;;16.70;99.90;;;;;;4989873;28;20188;-75
2022/11/09 11:03:43;;;;;;;10.40;9.83;;;16.70;99.90;;;;;;4991012;28;20216;-76
2022/11/09 11:06:16;;;;;;;9.77;9.07;;;16.80;99.90;;;;;;4989734;28;20173;-76
2022/11/09 11:08:49;;;;;;;13.20;12.50;;;16.90;99.90;;;;;;4990604;28;20538;-76
2022/11/09 11:11:23;;;;;;;11.37;10.50;;;16.80;99.90;;;;;;4989688;28;20192;-76
2022/11/09 11:13:50;;;;;;;13.57;12.83;;;17.10;99.90;;;;;;4990878;28;20204;-76
2022/11/09 11:16:26;;;;;;;17.40;16.33;;;17.30;99.90;;;;;;4990932;28;20181;-76
2022/11/09 11:18:54;;;;;;;8.33;7.93;;;17.70;99.90;;;;;;4989400;28;20215;-76
2022/11/09 11:21:22;;;;;;;16.27;15.27;;;17.80;99.90;;;;;;4990749;28;20693;-77
2022/11/09 11:24:16;;;;;;;15.40;14.57;;;17.80;99.90;;;;;;4989597;28;20212;-77
2022/11/09 11:26:51;;;;;;;10.63;10.13;;;17.80;99.90;;;;;;4989504;28;20177;-77
2022/11/09 11:29:35;;;;;;;8.33;7.83;;;17.70;99.90;;;;;;4989529;28;20186;-77
2022/11/09 11:32:01;;;;;;;9.83;9.07;;;17.60;99.90;;;;;;4989477;28;20180;-77
2022/11/09 11:34:26;;;;;;;27.97;26.43;;;17.50;99.90;;;;;;5017081;22;20314;-74
2022/11/09 11:36:58;;;;;;;18.03;17.13;;;17.30;99.90;;;;;;5009280;28;20224;-74
2022/11/09 11:39:43;;;;;;;10.43;9.80;;;17.10;99.90;;;;;;5008478;28;20180;-74
2022/11/09 11:42:22;;;;;;;7.50;7.03;;;16.90;99.90;;;;;;5010539;28;20213;-74
2022/11/09 11:45:34;;;;;;;6.60;6.20;;;16.80;99.90;;;;;;5009135;28;20598;-75
2022/11/09 11:48:06;;;;;;;5.97;5.53;;;16.60;99.90;;;;;;5009408;28;20684;-74
2022/11/09 11:50:38;;;;;;;6.43;6.03;;;16.40;99.90;;;;;;5010027;28;20193;-74
2022/11/09 11:53:22;;;;;;;6.60;6.20;;;16.50;99.90;;;;;;5009611;28;20664;-74
2022/11/09 11:56:06;;;;;;;5.83;5.40;;;16.60;99.90;;;;;;5008493;28;20241;-74
2022/11/09 11:58:45;;;;;;;5.23;5.00;;;16.60;99.90;;;;;;5009099;28;20197;-74
2022/11/09 12:01:34;;;;;;;6.60;6.20;;;16.50;99.90;;;;;;5009710;28;20187;-75
2022/11/09 12:04:17;;;;;;;7.43;7.03;;;16.30;99.90;;;;;;5009802;28;20226;-73
2022/11/09 12:06:57;;;;;;;14.83;13.73;;;16.20;99.90;;;;;;5009504;28;20190;-74
2022/11/09 12:09:45;;;;;;;21.33;20.23;;;16.10;99.90;;;;;;5008856;28;20241;-71
2022/11/09 12:12:17;;;;;;;27.40;25.97;;;16.00;99.90;;;;;;5009445;28;20644;-74
2022/11/09 12:15:16;;;;;;;12.17;11.57;;;15.90;99.90;;;;;;5009270;28;20250;-73
2022/11/09 12:18:08;;;;;;;7.70;7.30;;;15.90;99.90;;;;;;5008967;28;20192;-73
2022/11/09 12:20:48;;;;;;;5.97;5.57;;;15.90;99.90;;;;;;5009019;28;20228;-73
2022/11/09 12:23:42;;;;;;;7.83;7.43;;;15.90;99.90;;;;;;5009070;28;20187;-73
2022/11/09 12:26:45;;;;;;;6.87;6.43;;;15.90;99.90;;;;;;5008168;28;20195;-73
2022/11/09 12:29:26;;;;;;;6.50;6.00;;;16.10;99.90;;;;;;5009546;28;20184;-72
2022/11/09 12:32:19;;;;;;;7.43;7.03;;;16.10;99.90;;;;;;5008005;28;20604;-73
2022/11/09 12:34:56;;;;;;;5.77;5.27;;;16.10;99.90;;;;;;5008915;28;20260;-73
2022/11/09 12:37:29;;;;;;;5.47;5.07;;;16.20;99.90;;;;;;5007594;28;20570;-73
2022/11/09 12:40:14;;;;;;;6.60;6.20;;;16.20;99.90;;;;;;5009134;28;20187;-73
2022/11/09 12:43:02;;;;;;;12.93;12.23;;;16.30;99.90;;;;;;5009088;28;20240;-73
2022/11/09 12:45:28;;;;;;;22.43;21.03;;;16.40;99.90;;;;;;5007735;28;20223;-73
2022/11/09 12:47:56;;;;;;;23.53;22.10;;;16.40;99.90;;;;;;5008657;28;20180;-73